sensor_id;sensor_type;location;lat;lon;timestamp;P1;durP1;ratioP1;P2;durP2;ratioP2
44147;SDS011;29810;55.848;37.368;2022-08-05T00:02:22;28.77;;;19.95;;
44147;SDS011;29810;55.848;37.368;2022-08-05T00:05:24;28.98;;;19.60;;
44147;SDS011;29810;55.848;37.368;2022-08-05T00:08:25;26.42;;;18.80;;
44147;SDS011;29810;55.848;37.368;2022-08-05T00:11:27;28.30;;;19.35;;
44147;SDS011;29810;55.848;37.368;2022-08-05T00:14:28;25.88;;;20.77;;
44147;SDS011;29810;55.848;37.368;2022-08-05T00:17:30;24.55;;;19.35;;
44147;SDS011;29810;55.848;37.368;2022-08-05T00:20:31;29.33;;;19.50;;
44147;SDS011;29810;55.848;37.368;2022-08-05T00:23:33;32.58;;;20.00;;
44147;SDS011;29810;55.848;37.368;2022-08-05T00:26:35;25.10;;;20.23;;
44147;SDS011;29810;55.848;37.368;2022-08-05T00:29:37;28.20;;;20.30;;
44147;SDS011;29810;55.848;37.368;2022-08-05T00:32:38;26.95;;;19.17;;
44147;SDS011;29810;55.848;37.368;2022-08-05T00:35:40;26.87;;;19.83;;
44147;SDS011;29810;55.848;37.368;2022-08-05T00:38:41;26.10;;;19.10;;
44147;SDS011;29810;55.848;37.368;2022-08-05T00:41:45;26.85;;;19.45;;
44147;SDS011;29810;55.848;37.368;2022-08-05T00:44:47;29.58;;;20.58;;
44147;SDS011;29810;55.848;37.368;2022-08-05T00:47:49;27.58;;;19.37;;
44147;SDS011;29810;55.848;37.368;2022-08-05T00:50:51;29.58;;;19.73;;
44147;SDS011;29810;55.848;37.368;2022-08-05T00:53:53;27.25;;;18.37;;
44147;SDS011;29810;55.848;37.368;2022-08-05T00:56:54;30.67;;;19.77;;
44147;SDS011;29810;55.848;37.368;2022-08-05T00:59:56;31.25;;;20.62;;
44147;SDS011;29810;55.848;37.368;2022-08-05T01:02:57;27.65;;;19.02;;
44147;SDS011;29810;55.848;37.368;2022-08-05T01:05:59;24.70;;;20.00;;
44147;SDS011;29810;55.848;37.368;2022-08-05T01:09:01;28.60;;;19.80;;
44147;SDS011;29810;55.848;37.368;2022-08-05T01:12:07;27.75;;;20.17;;
44147;SDS011;29810;55.848;37.368;2022-08-05T01:15:14;30.02;;;20.48;;
44147;SDS011;29810;55.848;37.368;2022-08-05T01:18:23;28.80;;;22.37;;
44147;SDS011;29810;55.848;37.368;2022-08-05T01:21:34;28.95;;;21.25;;
44147;SDS011;29810;55.848;37.368;2022-08-05T01:25:06;24.25;;;20.92;;
44147;SDS011;29810;55.848;37.368;2022-08-05T01:32:09;31.23;;;20.52;;
44147;SDS011;29810;55.848;37.368;2022-08-05T01:35:16;27.02;;;20.15;;
44147;SDS011;29810;55.848;37.368;2022-08-05T01:38:22;32.80;;;21.08;;
44147;SDS011;29810;55.848;37.368;2022-08-05T01:41:28;33.42;;;20.90;;
44147;SDS011;29810;55.848;37.368;2022-08-05T01:44:33;27.37;;;21.30;;
44147;SDS011;29810;55.848;37.368;2022-08-05T01:47:36;34.63;;;22.17;;
44147;SDS011;29810;55.848;37.368;2022-08-05T01:50:39;30.30;;;21.85;;
44147;SDS011;29810;55.848;37.368;2022-08-05T01:53:41;29.20;;;22.02;;
44147;SDS011;29810;55.848;37.368;2022-08-05T01:56:46;27.85;;;21.77;;
44147;SDS011;29810;55.848;37.368;2022-08-05T01:59:51;30.40;;;22.65;;
44147;SDS011;29810;55.848;37.368;2022-08-05T02:03:03;29.40;;;21.75;;
44147;SDS011;29810;55.848;37.368;2022-08-05T02:06:11;29.08;;;22.23;;
44147;SDS011;29810;55.848;37.368;2022-08-05T02:09:13;32.25;;;22.45;;
44147;SDS011;29810;55.848;37.368;2022-08-05T02:15:49;36.40;;;22.33;;
44147;SDS011;29810;55.848;37.368;2022-08-05T02:19:18;28.40;;;22.27;;
44147;SDS011;29810;55.848;37.368;2022-08-05T02:22:25;33.13;;;22.40;;
44147;SDS011;29810;55.848;37.368;2022-08-05T02:25:31;28.87;;;22.03;;
44147;SDS011;29810;55.848;37.368;2022-08-05T02:28:37;27.03;;;21.97;;
44147;SDS011;29810;55.848;37.368;2022-08-05T02:31:42;28.55;;;23.17;;
44147;SDS011;29810;55.848;37.368;2022-08-05T02:34:46;31.73;;;22.33;;
44147;SDS011;29810;55.848;37.368;2022-08-05T02:37:49;33.58;;;24.48;;
44147;SDS011;29810;55.848;37.368;2022-08-05T02:40:53;29.20;;;22.67;;
44147;SDS011;29810;55.848;37.368;2022-08-05T02:43:58;27.58;;;22.98;;
44147;SDS011;29810;55.848;37.368;2022-08-05T02:47:02;26.85;;;22.45;;
44147;SDS011;29810;55.848;37.368;2022-08-05T02:50:06;30.17;;;23.60;;
44147;SDS011;29810;55.848;37.368;2022-08-05T02:53:08;27.90;;;22.77;;
44147;SDS011;29810;55.848;37.368;2022-08-05T02:56:10;30.42;;;23.33;;
44147;SDS011;29810;55.848;37.368;2022-08-05T02:59:13;28.30;;;23.48;;
44147;SDS011;29810;55.848;37.368;2022-08-05T03:05:22;30.15;;;23.80;;
44147;SDS011;29810;55.848;37.368;2022-08-05T03:08:24;31.95;;;24.45;;
44147;SDS011;29810;55.848;37.368;2022-08-05T03:11:26;26.02;;;23.20;;
44147;SDS011;29810;55.848;37.368;2022-08-05T03:14:29;28.27;;;24.42;;
44147;SDS011;29810;55.848;37.368;2022-08-05T03:17:30;31.50;;;25.10;;
44147;SDS011;29810;55.848;37.368;2022-08-05T03:20:32;27.80;;;23.75;;
44147;SDS011;29810;55.848;37.368;2022-08-05T03:23:33;31.08;;;22.73;;
44147;SDS011;29810;55.848;37.368;2022-08-05T03:26:36;27.95;;;22.17;;
44147;SDS011;29810;55.848;37.368;2022-08-05T03:29:38;28.23;;;22.60;;
44147;SDS011;29810;55.848;37.368;2022-08-05T03:32:46;32.92;;;23.42;;
44147;SDS011;29810;55.848;37.368;2022-08-05T03:35:48;27.23;;;24.33;;
44147;SDS011;29810;55.848;37.368;2022-08-05T03:38:51;32.63;;;25.12;;
44147;SDS011;29810;55.848;37.368;2022-08-05T03:41:52;28.48;;;24.00;;
44147;SDS011;29810;55.848;37.368;2022-08-05T03:44:56;31.45;;;26.02;;
44147;SDS011;29810;55.848;37.368;2022-08-05T03:47:57;36.03;;;24.70;;
44147;SDS011;29810;55.848;37.368;2022-08-05T03:51:04;27.95;;;23.83;;
44147;SDS011;29810;55.848;37.368;2022-08-05T03:54:09;33.78;;;24.95;;
44147;SDS011;29810;55.848;37.368;2022-08-05T03:57:33;32.50;;;25.15;;
44147;SDS011;29810;55.848;37.368;2022-08-05T04:00:37;29.85;;;26.20;;
44147;SDS011;29810;55.848;37.368;2022-08-05T04:03:41;30.58;;;25.00;;
44147;SDS011;29810;55.848;37.368;2022-08-05T04:06:47;30.58;;;24.70;;
44147;SDS011;29810;55.848;37.368;2022-08-05T04:09:50;32.58;;;25.00;;
44147;SDS011;29810;55.848;37.368;2022-08-05T04:12:52;31.58;;;25.55;;
44147;SDS011;29810;55.848;37.368;2022-08-05T04:15:55;28.62;;;24.63;;
44147;SDS011;29810;55.848;37.368;2022-08-05T04:18:56;31.05;;;24.35;;
44147;SDS011;29810;55.848;37.368;2022-08-05T04:21:58;36.85;;;24.87;;
44147;SDS011;29810;55.848;37.368;2022-08-05T04:25:00;29.30;;;22.95;;
44147;SDS011;29810;55.848;37.368;2022-08-05T04:28:01;26.62;;;23.23;;
44147;SDS011;29810;55.848;37.368;2022-08-05T04:31:03;29.75;;;22.65;;
44147;SDS011;29810;55.848;37.368;2022-08-05T04:34:05;31.67;;;24.05;;
44147;SDS011;29810;55.848;37.368;2022-08-05T04:37:06;28.45;;;23.65;;
44147;SDS011;29810;55.848;37.368;2022-08-05T04:40:08;33.35;;;24.58;;
44147;SDS011;29810;55.848;37.368;2022-08-05T04:43:11;31.00;;;24.80;;
44147;SDS011;29810;55.848;37.368;2022-08-05T04:46:13;28.38;;;24.58;;
44147;SDS011;29810;55.848;37.368;2022-08-05T04:49:14;28.12;;;25.25;;
44147;SDS011;29810;55.848;37.368;2022-08-05T04:52:16;33.22;;;26.17;;
44147;SDS011;29810;55.848;37.368;2022-08-05T04:55:17;27.85;;;24.73;;
44147;SDS011;29810;55.848;37.368;2022-08-05T04:58:19;29.00;;;25.10;;
44147;SDS011;29810;55.848;37.368;2022-08-05T05:01:21;28.38;;;25.08;;
44147;SDS011;29810;55.848;37.368;2022-08-05T05:04:23;33.25;;;25.08;;
44147;SDS011;29810;55.848;37.368;2022-08-05T05:07:24;29.85;;;26.08;;
44147;SDS011;29810;55.848;37.368;2022-08-05T05:10:26;30.17;;;27.05;;
44147;SDS011;29810;55.848;37.368;2022-08-05T05:13:28;31.98;;;26.42;;
44147;SDS011;29810;55.848;37.368;2022-08-05T05:16:30;30.95;;;26.42;;
44147;SDS011;29810;55.848;37.368;2022-08-05T05:19:32;32.60;;;28.15;;
44147;SDS011;29810;55.848;37.368;2022-08-05T05:22:34;30.73;;;27.35;;
44147;SDS011;29810;55.848;37.368;2022-08-05T05:25:36;30.02;;;26.83;;
44147;SDS011;29810;55.848;37.368;2022-08-05T05:28:37;32.83;;;27.52;;
44147;SDS011;29810;55.848;37.368;2022-08-05T05:31:39;39.38;;;29.60;;
44147;SDS011;29810;55.848;37.368;2022-08-05T05:34:40;37.83;;;29.12;;
44147;SDS011;29810;55.848;37.368;2022-08-05T05:37:52;32.17;;;28.48;;
44147;SDS011;29810;55.848;37.368;2022-08-05T05:40:55;33.83;;;28.25;;
44147;SDS011;29810;55.848;37.368;2022-08-05T05:43:57;30.62;;;27.62;;
44147;SDS011;29810;55.848;37.368;2022-08-05T05:46:59;33.25;;;27.83;;
44147;SDS011;29810;55.848;37.368;2022-08-05T05:50:01;31.83;;;28.17;;
44147;SDS011;29810;55.848;37.368;2022-08-05T05:53:07;31.70;;;27.20;;
44147;SDS011;29810;55.848;37.368;2022-08-05T05:56:09;31.15;;;27.90;;
44147;SDS011;29810;55.848;37.368;2022-08-05T05:59:11;34.63;;;28.27;;
44147;SDS011;29810;55.848;37.368;2022-08-05T06:02:12;32.33;;;27.23;;
44147;SDS011;29810;55.848;37.368;2022-08-05T06:05:14;32.45;;;26.83;;
44147;SDS011;29810;55.848;37.368;2022-08-05T06:08:16;29.73;;;26.40;;
44147;SDS011;29810;55.848;37.368;2022-08-05T06:11:18;30.88;;;26.50;;
44147;SDS011;29810;55.848;37.368;2022-08-05T06:14:19;30.73;;;26.33;;
44147;SDS011;29810;55.848;37.368;2022-08-05T06:17:21;31.58;;;26.27;;
44147;SDS011;29810;55.848;37.368;2022-08-05T06:20:22;32.00;;;25.70;;
44147;SDS011;29810;55.848;37.368;2022-08-05T06:23:24;31.87;;;24.60;;
44147;SDS011;29810;55.848;37.368;2022-08-05T06:26:25;35.75;;;24.90;;
44147;SDS011;29810;55.848;37.368;2022-08-05T06:29:27;39.47;;;26.25;;
44147;SDS011;29810;55.848;37.368;2022-08-05T06:32:28;31.90;;;26.05;;
44147;SDS011;29810;55.848;37.368;2022-08-05T06:35:30;27.50;;;24.25;;
44147;SDS011;29810;55.848;37.368;2022-08-05T06:38:32;32.63;;;25.35;;
44147;SDS011;29810;55.848;37.368;2022-08-05T06:41:33;27.73;;;23.73;;
44147;SDS011;29810;55.848;37.368;2022-08-05T06:44:35;29.83;;;22.40;;
44147;SDS011;29810;55.848;37.368;2022-08-05T06:47:36;31.77;;;24.08;;
44147;SDS011;29810;55.848;37.368;2022-08-05T06:50:38;30.33;;;22.75;;
44147;SDS011;29810;55.848;37.368;2022-08-05T06:53:39;26.70;;;22.30;;
44147;SDS011;29810;55.848;37.368;2022-08-05T06:56:41;31.75;;;22.70;;
44147;SDS011;29810;55.848;37.368;2022-08-05T06:59:43;28.15;;;21.00;;
44147;SDS011;29810;55.848;37.368;2022-08-05T07:02:45;28.73;;;19.95;;
44147;SDS011;29810;55.848;37.368;2022-08-05T07:05:47;28.45;;;19.60;;
44147;SDS011;29810;55.848;37.368;2022-08-05T07:08:49;23.62;;;18.02;;
44147;SDS011;29810;55.848;37.368;2022-08-05T07:11:51;22.42;;;16.77;;
44147;SDS011;29810;55.848;37.368;2022-08-05T07:14:52;23.10;;;16.15;;
44147;SDS011;29810;55.848;37.368;2022-08-05T07:18:13;20.35;;;15.93;;
44147;SDS011;29810;55.848;37.368;2022-08-05T07:21:14;19.25;;;14.38;;
44147;SDS011;29810;55.848;37.368;2022-08-05T07:24:16;22.33;;;14.65;;
44147;SDS011;29810;55.848;37.368;2022-08-05T07:27:17;20.98;;;13.77;;
44147;SDS011;29810;55.848;37.368;2022-08-05T07:30:19;15.27;;;12.75;;
44147;SDS011;29810;55.848;37.368;2022-08-05T07:33:21;20.58;;;13.57;;
44147;SDS011;29810;55.848;37.368;2022-08-05T07:36:23;13.45;;;11.80;;
44147;SDS011;29810;55.848;37.368;2022-08-05T07:39:25;17.30;;;12.13;;
44147;SDS011;29810;55.848;37.368;2022-08-05T07:42:27;17.37;;;10.90;;
44147;SDS011;29810;55.848;37.368;2022-08-05T07:45:28;15.25;;;10.10;;
44147;SDS011;29810;55.848;37.368;2022-08-05T07:48:30;16.62;;;10.40;;
44147;SDS011;29810;55.848;37.368;2022-08-05T07:51:35;15.32;;;9.30;;
44147;SDS011;29810;55.848;37.368;2022-08-05T07:54:38;12.48;;;9.70;;
44147;SDS011;29810;55.848;37.368;2022-08-05T07:57:39;12.95;;;9.40;;
44147;SDS011;29810;55.848;37.368;2022-08-05T08:00:41;13.30;;;8.88;;
44147;SDS011;29810;55.848;37.368;2022-08-05T08:03:45;11.15;;;8.48;;
44147;SDS011;29810;55.848;37.368;2022-08-05T08:06:46;11.48;;;8.43;;
44147;SDS011;29810;55.848;37.368;2022-08-05T08:09:49;12.23;;;8.68;;
44147;SDS011;29810;55.848;37.368;2022-08-05T08:12:52;14.00;;;9.05;;
44147;SDS011;29810;55.848;37.368;2022-08-05T08:15:53;13.73;;;9.23;;
44147;SDS011;29810;55.848;37.368;2022-08-05T08:18:55;10.50;;;8.48;;
44147;SDS011;29810;55.848;37.368;2022-08-05T08:21:56;14.70;;;9.27;;
44147;SDS011;29810;55.848;37.368;2022-08-05T08:24:58;10.68;;;8.75;;
44147;SDS011;29810;55.848;37.368;2022-08-05T08:28:00;10.98;;;9.13;;
44147;SDS011;29810;55.848;37.368;2022-08-05T08:31:02;11.35;;;9.40;;
44147;SDS011;29810;55.848;37.368;2022-08-05T08:34:03;11.63;;;9.55;;
44147;SDS011;29810;55.848;37.368;2022-08-05T08:37:05;11.73;;;9.30;;
44147;SDS011;29810;55.848;37.368;2022-08-05T08:40:07;17.00;;;9.70;;
44147;SDS011;29810;55.848;37.368;2022-08-05T08:43:11;14.43;;;9.07;;
44147;SDS011;29810;55.848;37.368;2022-08-05T08:49:18;11.38;;;9.40;;
44147;SDS011;29810;55.848;37.368;2022-08-05T08:52:24;15.43;;;9.15;;
44147;SDS011;29810;55.848;37.368;2022-08-05T08:55:31;10.23;;;9.20;;
44147;SDS011;29810;55.848;37.368;2022-08-05T08:58:35;11.32;;;9.13;;
44147;SDS011;29810;55.848;37.368;2022-08-05T09:01:36;15.35;;;9.38;;
44147;SDS011;29810;55.848;37.368;2022-08-05T09:04:39;13.45;;;10.23;;
44147;SDS011;29810;55.848;37.368;2022-08-05T09:07:41;12.68;;;9.43;;
44147;SDS011;29810;55.848;37.368;2022-08-05T09:10:43;15.75;;;10.52;;
44147;SDS011;29810;55.848;37.368;2022-08-05T09:13:44;12.25;;;9.23;;
44147;SDS011;29810;55.848;37.368;2022-08-05T09:16:47;15.23;;;9.55;;
44147;SDS011;29810;55.848;37.368;2022-08-05T09:19:48;14.87;;;9.85;;
44147;SDS011;29810;55.848;37.368;2022-08-05T09:26:13;13.32;;;10.00;;
44147;SDS011;29810;55.848;37.368;2022-08-05T09:29:17;10.87;;;9.43;;
44147;SDS011;29810;55.848;37.368;2022-08-05T09:32:19;13.62;;;9.40;;
44147;SDS011;29810;55.848;37.368;2022-08-05T09:35:34;14.83;;;9.17;;
44147;SDS011;29810;55.848;37.368;2022-08-05T09:38:36;14.57;;;9.38;;
44147;SDS011;29810;55.848;37.368;2022-08-05T09:41:57;12.37;;;8.75;;
44147;SDS011;29810;55.848;37.368;2022-08-05T09:45:04;14.73;;;8.68;;
44147;SDS011;29810;55.848;37.368;2022-08-05T09:48:20;12.00;;;8.68;;
44147;SDS011;29810;55.848;37.368;2022-08-05T09:51:39;14.65;;;9.20;;
44147;SDS011;29810;55.848;37.368;2022-08-05T09:58:13;10.27;;;8.48;;
44147;SDS011;29810;55.848;37.368;2022-08-05T10:01:15;12.25;;;8.95;;
44147;SDS011;29810;55.848;37.368;2022-08-05T10:04:17;12.10;;;8.50;;
44147;SDS011;29810;55.848;37.368;2022-08-05T10:07:18;10.18;;;8.77;;
44147;SDS011;29810;55.848;37.368;2022-08-05T10:10:24;12.77;;;8.60;;
44147;SDS011;29810;55.848;37.368;2022-08-05T10:13:32;9.45;;;8.38;;
44147;SDS011;29810;55.848;37.368;2022-08-05T10:16:36;12.00;;;8.52;;
44147;SDS011;29810;55.848;37.368;2022-08-05T10:19:37;14.07;;;8.50;;
44147;SDS011;29810;55.848;37.368;2022-08-05T10:22:39;11.48;;;9.45;;
44147;SDS011;29810;55.848;37.368;2022-08-05T10:25:41;13.60;;;8.88;;
44147;SDS011;29810;55.848;37.368;2022-08-05T10:28:44;11.77;;;8.57;;
44147;SDS011;29810;55.848;37.368;2022-08-05T10:31:46;12.85;;;8.85;;
44147;SDS011;29810;55.848;37.368;2022-08-05T10:34:48;12.60;;;9.18;;
44147;SDS011;29810;55.848;37.368;2022-08-05T10:37:51;14.00;;;9.80;;
44147;SDS011;29810;55.848;37.368;2022-08-05T10:44:06;13.73;;;9.50;;
44147;SDS011;29810;55.848;37.368;2022-08-05T10:47:12;12.98;;;9.43;;
44147;SDS011;29810;55.848;37.368;2022-08-05T10:50:14;17.30;;;9.85;;
44147;SDS011;29810;55.848;37.368;2022-08-05T10:53:33;11.82;;;9.40;;
44147;SDS011;29810;55.848;37.368;2022-08-05T10:56:43;14.13;;;9.98;;
44147;SDS011;29810;55.848;37.368;2022-08-05T10:59:51;13.73;;;9.73;;
44147;SDS011;29810;55.848;37.368;2022-08-05T11:03:11;13.82;;;9.65;;
44147;SDS011;29810;55.848;37.368;2022-08-05T11:06:14;14.52;;;9.65;;
44147;SDS011;29810;55.848;37.368;2022-08-05T11:09:17;11.18;;;9.40;;
44147;SDS011;29810;55.848;37.368;2022-08-05T11:15:37;13.23;;;10.38;;
44147;SDS011;29810;55.848;37.368;2022-08-05T11:18:43;10.50;;;9.45;;
44147;SDS011;29810;55.848;37.368;2022-08-05T11:21:45;11.38;;;9.45;;
44147;SDS011;29810;55.848;37.368;2022-08-05T11:24:46;11.40;;;9.65;;
44147;SDS011;29810;55.848;37.368;2022-08-05T11:31:28;11.12;;;9.77;;
44147;SDS011;29810;55.848;37.368;2022-08-05T11:34:37;10.85;;;9.38;;
44147;SDS011;29810;55.848;37.368;2022-08-05T11:41:00;12.25;;;9.98;;
44147;SDS011;29810;55.848;37.368;2022-08-05T11:44:09;11.18;;;9.63;;
44147;SDS011;29810;55.848;37.368;2022-08-05T11:47:12;10.63;;;9.63;;
44147;SDS011;29810;55.848;37.368;2022-08-05T11:50:15;12.85;;;9.75;;
44147;SDS011;29810;55.848;37.368;2022-08-05T11:53:18;11.20;;;9.82;;
44147;SDS011;29810;55.848;37.368;2022-08-05T11:56:21;11.07;;;9.30;;
44147;SDS011;29810;55.848;37.368;2022-08-05T11:59:24;10.82;;;9.35;;
44147;SDS011;29810;55.848;37.368;2022-08-05T12:02:28;11.57;;;10.27;;
44147;SDS011;29810;55.848;37.368;2022-08-05T12:05:32;13.00;;;9.95;;
44147;SDS011;29810;55.848;37.368;2022-08-05T12:08:38;12.18;;;10.20;;
44147;SDS011;29810;55.848;37.368;2022-08-05T12:11:47;12.15;;;10.45;;
44147;SDS011;29810;55.848;37.368;2022-08-05T12:14:49;11.55;;;9.30;;
44147;SDS011;29810;55.848;37.368;2022-08-05T12:17:51;12.90;;;10.10;;
44147;SDS011;29810;55.848;37.368;2022-08-05T12:20:52;11.98;;;10.00;;
44147;SDS011;29810;55.848;37.368;2022-08-05T12:23:58;13.10;;;9.75;;
44147;SDS011;29810;55.848;37.368;2022-08-05T12:27:00;11.05;;;10.05;;
44147;SDS011;29810;55.848;37.368;2022-08-05T12:30:09;10.63;;;9.50;;
44147;SDS011;29810;55.848;37.368;2022-08-05T12:33:12;10.70;;;9.40;;
44147;SDS011;29810;55.848;37.368;2022-08-05T12:36:14;11.02;;;9.90;;
44147;SDS011;29810;55.848;37.368;2022-08-05T12:39:15;12.45;;;10.00;;
44147;SDS011;29810;55.848;37.368;2022-08-05T12:42:18;11.07;;;9.60;;
44147;SDS011;29810;55.848;37.368;2022-08-05T12:45:20;12.10;;;9.85;;
44147;SDS011;29810;55.848;37.368;2022-08-05T12:48:22;11.27;;;10.25;;
44147;SDS011;29810;55.848;37.368;2022-08-05T12:51:24;12.98;;;10.13;;
44147;SDS011;29810;55.848;37.368;2022-08-05T12:54:28;14.80;;;9.52;;
44147;SDS011;29810;55.848;37.368;2022-08-05T12:57:35;13.55;;;10.10;;
44147;SDS011;29810;55.848;37.368;2022-08-05T13:00:40;10.68;;;9.68;;
44147;SDS011;29810;55.848;37.368;2022-08-05T13:03:43;10.98;;;9.88;;
44147;SDS011;29810;55.848;37.368;2022-08-05T13:06:47;13.43;;;9.98;;
44147;SDS011;29810;55.848;37.368;2022-08-05T13:09:50;11.65;;;10.13;;
44147;SDS011;29810;55.848;37.368;2022-08-05T13:12:54;11.45;;;9.60;;
44147;SDS011;29810;55.848;37.368;2022-08-05T13:15:56;12.68;;;10.35;;
44147;SDS011;29810;55.848;37.368;2022-08-05T13:18:59;14.87;;;10.90;;
44147;SDS011;29810;55.848;37.368;2022-08-05T13:22:01;10.77;;;9.77;;
44147;SDS011;29810;55.848;37.368;2022-08-05T13:25:04;11.70;;;9.13;;
44147;SDS011;29810;55.848;37.368;2022-08-05T13:28:08;14.27;;;10.55;;
44147;SDS011;29810;55.848;37.368;2022-08-05T13:31:10;11.40;;;9.90;;
44147;SDS011;29810;55.848;37.368;2022-08-05T13:34:11;15.18;;;10.40;;
44147;SDS011;29810;55.848;37.368;2022-08-05T13:37:14;13.77;;;10.30;;
44147;SDS011;29810;55.848;37.368;2022-08-05T13:40:15;14.48;;;10.18;;
44147;SDS011;29810;55.848;37.368;2022-08-05T13:43:19;12.90;;;10.65;;
44147;SDS011;29810;55.848;37.368;2022-08-05T13:46:21;10.88;;;9.82;;
44147;SDS011;29810;55.848;37.368;2022-08-05T13:49:23;12.90;;;10.57;;
44147;SDS011;29810;55.848;37.368;2022-08-05T13:52:25;13.60;;;10.32;;
44147;SDS011;29810;55.848;37.368;2022-08-05T13:55:27;11.23;;;9.80;;
44147;SDS011;29810;55.848;37.368;2022-08-05T13:58:28;12.63;;;10.30;;
44147;SDS011;29810;55.848;37.368;2022-08-05T14:01:30;11.55;;;10.45;;
44147;SDS011;29810;55.848;37.368;2022-08-05T14:04:35;15.57;;;10.48;;
44147;SDS011;29810;55.848;37.368;2022-08-05T14:07:59;10.45;;;9.52;;
44147;SDS011;29810;55.848;37.368;2022-08-05T14:11:01;13.23;;;10.35;;
44147;SDS011;29810;55.848;37.368;2022-08-05T14:14:02;11.60;;;10.00;;
44147;SDS011;29810;55.848;37.368;2022-08-05T14:17:04;17.80;;;10.05;;
44147;SDS011;29810;55.848;37.368;2022-08-05T14:20:06;11.60;;;10.35;;
44147;SDS011;29810;55.848;37.368;2022-08-05T14:23:08;10.90;;;9.55;;
44147;SDS011;29810;55.848;37.368;2022-08-05T14:26:10;11.70;;;9.30;;
44147;SDS011;29810;55.848;37.368;2022-08-05T14:29:11;12.80;;;10.05;;
44147;SDS011;29810;55.848;37.368;2022-08-05T14:32:13;11.05;;;9.50;;
44147;SDS011;29810;55.848;37.368;2022-08-05T14:35:15;11.25;;;10.07;;
44147;SDS011;29810;55.848;37.368;2022-08-05T14:38:17;11.07;;;9.52;;
44147;SDS011;29810;55.848;37.368;2022-08-05T14:41:21;11.12;;;9.27;;
44147;SDS011;29810;55.848;37.368;2022-08-05T14:44:24;9.95;;;8.95;;
44147;SDS011;29810;55.848;37.368;2022-08-05T14:47:26;10.77;;;8.65;;
44147;SDS011;29810;55.848;37.368;2022-08-05T14:50:28;11.27;;;8.98;;
44147;SDS011;29810;55.848;37.368;2022-08-05T14:53:30;10.32;;;9.27;;
44147;SDS011;29810;55.848;37.368;2022-08-05T14:56:31;11.65;;;9.20;;
44147;SDS011;29810;55.848;37.368;2022-08-05T14:59:33;10.05;;;9.05;;
44147;SDS011;29810;55.848;37.368;2022-08-05T15:02:34;14.35;;;9.45;;
44147;SDS011;29810;55.848;37.368;2022-08-05T15:05:36;12.93;;;9.80;;
44147;SDS011;29810;55.848;37.368;2022-08-05T15:08:37;11.15;;;9.10;;
44147;SDS011;29810;55.848;37.368;2022-08-05T15:11:41;12.52;;;9.18;;
44147;SDS011;29810;55.848;37.368;2022-08-05T15:14:45;10.90;;;9.20;;
44147;SDS011;29810;55.848;37.368;2022-08-05T15:17:46;9.68;;;8.68;;
44147;SDS011;29810;55.848;37.368;2022-08-05T15:20:48;10.77;;;9.20;;
44147;SDS011;29810;55.848;37.368;2022-08-05T15:23:49;9.82;;;8.93;;
44147;SDS011;29810;55.848;37.368;2022-08-05T15:26:51;13.45;;;9.35;;
44147;SDS011;29810;55.848;37.368;2022-08-05T15:29:53;10.77;;;9.00;;
44147;SDS011;29810;55.848;37.368;2022-08-05T15:32:54;12.43;;;9.05;;
44147;SDS011;29810;55.848;37.368;2022-08-05T15:35:56;10.95;;;8.63;;
44147;SDS011;29810;55.848;37.368;2022-08-05T15:38:57;12.93;;;9.25;;
44147;SDS011;29810;55.848;37.368;2022-08-05T15:42:00;11.18;;;8.75;;
44147;SDS011;29810;55.848;37.368;2022-08-05T15:45:01;10.23;;;8.65;;
44147;SDS011;29810;55.848;37.368;2022-08-05T15:48:05;9.63;;;8.50;;
44147;SDS011;29810;55.848;37.368;2022-08-05T15:51:06;12.48;;;9.90;;
44147;SDS011;29810;55.848;37.368;2022-08-05T15:54:08;10.43;;;8.73;;
44147;SDS011;29810;55.848;37.368;2022-08-05T15:57:10;13.62;;;9.40;;
44147;SDS011;29810;55.848;37.368;2022-08-05T16:00:12;11.27;;;9.25;;
44147;SDS011;29810;55.848;37.368;2022-08-05T16:03:14;12.43;;;8.85;;
44147;SDS011;29810;55.848;37.368;2022-08-05T16:06:15;14.23;;;9.52;;
44147;SDS011;29810;55.848;37.368;2022-08-05T16:09:17;12.00;;;9.98;;
44147;SDS011;29810;55.848;37.368;2022-08-05T16:12:18;10.45;;;9.10;;
44147;SDS011;29810;55.848;37.368;2022-08-05T16:15:20;12.23;;;9.40;;
44147;SDS011;29810;55.848;37.368;2022-08-05T16:18:22;11.12;;;9.70;;
44147;SDS011;29810;55.848;37.368;2022-08-05T16:21:23;14.35;;;9.68;;
44147;SDS011;29810;55.848;37.368;2022-08-05T16:24:25;11.00;;;9.15;;
44147;SDS011;29810;55.848;37.368;2022-08-05T16:27:27;10.80;;;9.60;;
44147;SDS011;29810;55.848;37.368;2022-08-05T16:30:28;10.75;;;9.63;;
44147;SDS011;29810;55.848;37.368;2022-08-05T16:33:32;12.02;;;9.70;;
44147;SDS011;29810;55.848;37.368;2022-08-05T16:36:35;12.52;;;9.13;;
44147;SDS011;29810;55.848;37.368;2022-08-05T16:39:36;11.73;;;9.10;;
44147;SDS011;29810;55.848;37.368;2022-08-05T16:42:40;17.75;;;10.05;;
44147;SDS011;29810;55.848;37.368;2022-08-05T16:45:42;17.80;;;11.07;;
44147;SDS011;29810;55.848;37.368;2022-08-05T16:48:43;14.93;;;10.15;;
44147;SDS011;29810;55.848;37.368;2022-08-05T16:51:45;17.00;;;10.48;;
44147;SDS011;29810;55.848;37.368;2022-08-05T16:54:48;12.90;;;9.90;;
44147;SDS011;29810;55.848;37.368;2022-08-05T16:57:50;10.43;;;9.25;;
44147;SDS011;29810;55.848;37.368;2022-08-05T17:00:51;10.52;;;9.43;;
44147;SDS011;29810;55.848;37.368;2022-08-05T17:03:53;14.63;;;9.77;;
44147;SDS011;29810;55.848;37.368;2022-08-05T17:06:55;13.02;;;10.30;;
44147;SDS011;29810;55.848;37.368;2022-08-05T17:13:01;15.55;;;9.75;;
44147;SDS011;29810;55.848;37.368;2022-08-05T17:16:03;12.43;;;9.40;;
44147;SDS011;29810;55.848;37.368;2022-08-05T17:19:06;11.65;;;9.60;;
44147;SDS011;29810;55.848;37.368;2022-08-05T17:22:07;10.70;;;9.18;;
44147;SDS011;29810;55.848;37.368;2022-08-05T17:25:09;12.80;;;9.02;;
44147;SDS011;29810;55.848;37.368;2022-08-05T17:28:11;11.43;;;9.20;;
44147;SDS011;29810;55.848;37.368;2022-08-05T17:31:13;10.10;;;8.95;;
44147;SDS011;29810;55.848;37.368;2022-08-05T17:34:15;11.45;;;9.30;;
44147;SDS011;29810;55.848;37.368;2022-08-05T17:37:16;11.27;;;9.20;;
44147;SDS011;29810;55.848;37.368;2022-08-05T17:40:19;11.43;;;8.80;;
44147;SDS011;29810;55.848;37.368;2022-08-05T17:43:21;12.07;;;9.48;;
44147;SDS011;29810;55.848;37.368;2022-08-05T17:46:22;11.15;;;8.77;;
44147;SDS011;29810;55.848;37.368;2022-08-05T17:49:24;13.25;;;9.32;;
44147;SDS011;29810;55.848;37.368;2022-08-05T17:52:25;10.20;;;8.90;;
44147;SDS011;29810;55.848;37.368;2022-08-05T17:55:27;13.88;;;9.80;;
44147;SDS011;29810;55.848;37.368;2022-08-05T17:58:30;11.27;;;9.90;;
44147;SDS011;29810;55.848;37.368;2022-08-05T18:01:31;11.50;;;9.60;;
44147;SDS011;29810;55.848;37.368;2022-08-05T18:04:33;12.50;;;9.70;;
44147;SDS011;29810;55.848;37.368;2022-08-05T18:07:34;10.80;;;9.35;;
44147;SDS011;29810;55.848;37.368;2022-08-05T18:10:36;14.32;;;9.80;;
44147;SDS011;29810;55.848;37.368;2022-08-05T18:13:37;12.00;;;10.30;;
44147;SDS011;29810;55.848;37.368;2022-08-05T18:16:40;11.25;;;9.98;;
44147;SDS011;29810;55.848;37.368;2022-08-05T18:19:41;12.55;;;9.95;;
44147;SDS011;29810;55.848;37.368;2022-08-05T18:22:43;12.40;;;10.43;;